sensor_id;sensor_type;location;lat;lon;timestamp;P1;durP1;ratioP1;P2;durP2;ratioP2
5221;SDS011;2630;52.036;8.514;2022-07-04T00:00:04;73.17;;;5.60;;
5221;SDS011;2630;52.036;8.514;2022-07-04T00:02:32;72.70;;;5.10;;
5221;SDS011;2630;52.036;8.514;2022-07-04T00:04:58;72.97;;;5.17;;
5221;SDS011;2630;52.036;8.514;2022-07-04T00:07:23;72.90;;;5.33;;
5221;SDS011;2630;52.036;8.514;2022-07-04T00:09:49;73.27;;;5.60;;
5221;SDS011;2630;52.036;8.514;2022-07-04T00:12:15;73.27;;;5.10;;
5221;SDS011;2630;52.036;8.514;2022-07-04T00:14:40;73.00;;;5.50;;
5221;SDS011;2630;52.036;8.514;2022-07-04T00:17:06;73.00;;;5.67;;
5221;SDS011;2630;52.036;8.514;2022-07-04T00:19:32;72.80;;;5.13;;
5221;SDS011;2630;52.036;8.514;2022-07-04T00:21:58;73.00;;;5.50;;
5221;SDS011;2630;52.036;8.514;2022-07-04T00:24:24;72.90;;;5.67;;
5221;SDS011;2630;52.036;8.514;2022-07-04T00:26:50;73.10;;;5.57;;
5221;SDS011;2630;52.036;8.514;2022-07-04T00:29:15;73.07;;;5.47;;
5221;SDS011;2630;52.036;8.514;2022-07-04T00:31:41;73.10;;;5.90;;
5221;SDS011;2630;52.036;8.514;2022-07-04T00:34:07;73.00;;;5.80;;
5221;SDS011;2630;52.036;8.514;2022-07-04T00:36:33;74.40;;;6.10;;
5221;SDS011;2630;52.036;8.514;2022-07-04T00:38:58;73.27;;;5.67;;
5221;SDS011;2630;52.036;8.514;2022-07-04T00:41:24;73.10;;;5.57;;
5221;SDS011;2630;52.036;8.514;2022-07-04T00:44:07;73.20;;;6.10;;
5221;SDS011;2630;52.036;8.514;2022-07-04T00:46:37;73.23;;;6.03;;
5221;SDS011;2630;52.036;8.514;2022-07-04T00:49:03;73.97;;;5.97;;
5221;SDS011;2630;52.036;8.514;2022-07-04T00:51:30;73.07;;;5.37;;
5221;SDS011;2630;52.036;8.514;2022-07-04T00:53:56;72.97;;;5.57;;
5221;SDS011;2630;52.036;8.514;2022-07-04T00:56:23;73.00;;;5.33;;
5221;SDS011;2630;52.036;8.514;2022-07-04T00:58:50;73.53;;;5.90;;
5221;SDS011;2630;52.036;8.514;2022-07-04T01:01:19;72.97;;;5.23;;
5221;SDS011;2630;52.036;8.514;2022-07-04T01:03:46;73.07;;;5.50;;
5221;SDS011;2630;52.036;8.514;2022-07-04T01:06:11;72.80;;;5.43;;
5221;SDS011;2630;52.036;8.514;2022-07-04T01:08:39;72.77;;;5.03;;
5221;SDS011;2630;52.036;8.514;2022-07-04T01:11:06;72.87;;;5.40;;
5221;SDS011;2630;52.036;8.514;2022-07-04T01:13:33;73.10;;;5.83;;
5221;SDS011;2630;52.036;8.514;2022-07-04T01:15:59;72.97;;;5.63;;
5221;SDS011;2630;52.036;8.514;2022-07-04T01:18:25;72.80;;;5.10;;
5221;SDS011;2630;52.036;8.514;2022-07-04T01:20:50;72.87;;;5.50;;
5221;SDS011;2630;52.036;8.514;2022-07-04T01:23:16;73.00;;;5.57;;
5221;SDS011;2630;52.036;8.514;2022-07-04T01:25:42;72.80;;;4.77;;
5221;SDS011;2630;52.036;8.514;2022-07-04T01:28:09;72.90;;;5.37;;
5221;SDS011;2630;52.036;8.514;2022-07-04T01:30:35;72.83;;;5.33;;
5221;SDS011;2630;52.036;8.514;2022-07-04T01:33:01;73.07;;;5.33;;
5221;SDS011;2630;52.036;8.514;2022-07-04T01:35:27;72.90;;;5.60;;
5221;SDS011;2630;52.036;8.514;2022-07-04T01:37:53;72.90;;;5.30;;
5221;SDS011;2630;52.036;8.514;2022-07-04T01:40:19;73.10;;;5.53;;
5221;SDS011;2630;52.036;8.514;2022-07-04T01:42:45;73.17;;;5.70;;
5221;SDS011;2630;52.036;8.514;2022-07-04T01:45:12;73.10;;;5.93;;
5221;SDS011;2630;52.036;8.514;2022-07-04T01:47:38;72.97;;;5.20;;
5221;SDS011;2630;52.036;8.514;2022-07-04T01:50:05;72.80;;;5.13;;
5221;SDS011;2630;52.036;8.514;2022-07-04T01:52:31;73.07;;;5.70;;
5221;SDS011;2630;52.036;8.514;2022-07-04T01:54:58;72.90;;;5.23;;
5221;SDS011;2630;52.036;8.514;2022-07-04T01:57:23;73.20;;;5.70;;
5221;SDS011;2630;52.036;8.514;2022-07-04T01:59:49;72.90;;;5.60;;
5221;SDS011;2630;52.036;8.514;2022-07-04T02:02:34;72.90;;;5.40;;
5221;SDS011;2630;52.036;8.514;2022-07-04T02:05:00;73.40;;;5.93;;
5221;SDS011;2630;52.036;8.514;2022-07-04T02:07:25;73.10;;;5.67;;
5221;SDS011;2630;52.036;8.514;2022-07-04T02:09:51;73.17;;;5.47;;
5221;SDS011;2630;52.036;8.514;2022-07-04T02:12:17;73.10;;;5.37;;
5221;SDS011;2630;52.036;8.514;2022-07-04T02:15:02;72.67;;;5.40;;
5221;SDS011;2630;52.036;8.514;2022-07-04T02:17:28;73.10;;;5.40;;
5221;SDS011;2630;52.036;8.514;2022-07-04T02:19:53;73.30;;;5.57;;
5221;SDS011;2630;52.036;8.514;2022-07-04T02:22:19;73.00;;;5.47;;
5221;SDS011;2630;52.036;8.514;2022-07-04T02:24:45;73.23;;;5.30;;
5221;SDS011;2630;52.036;8.514;2022-07-04T02:27:11;73.40;;;5.90;;
5221;SDS011;2630;52.036;8.514;2022-07-04T02:29:36;73.10;;;5.63;;
5221;SDS011;2630;52.036;8.514;2022-07-04T02:32:03;72.97;;;5.43;;
5221;SDS011;2630;52.036;8.514;2022-07-04T02:34:29;73.10;;;5.43;;
5221;SDS011;2630;52.036;8.514;2022-07-04T02:36:55;73.30;;;5.97;;
5221;SDS011;2630;52.036;8.514;2022-07-04T02:39:20;73.10;;;5.67;;
5221;SDS011;2630;52.036;8.514;2022-07-04T02:41:46;73.33;;;5.80;;
5221;SDS011;2630;52.036;8.514;2022-07-04T02:44:12;72.93;;;5.70;;
5221;SDS011;2630;52.036;8.514;2022-07-04T02:46:37;73.20;;;5.80;;
5221;SDS011;2630;52.036;8.514;2022-07-04T02:49:03;72.87;;;5.43;;
5221;SDS011;2630;52.036;8.514;2022-07-04T02:51:29;73.07;;;5.43;;
5221;SDS011;2630;52.036;8.514;2022-07-04T02:53:55;73.00;;;5.50;;
5221;SDS011;2630;52.036;8.514;2022-07-04T02:56:21;73.30;;;6.00;;
5221;SDS011;2630;52.036;8.514;2022-07-04T02:58:47;72.87;;;5.33;;
5221;SDS011;2630;52.036;8.514;2022-07-04T03:01:13;72.97;;;5.70;;
5221;SDS011;2630;52.036;8.514;2022-07-04T03:03:39;72.90;;;5.13;;
5221;SDS011;2630;52.036;8.514;2022-07-04T03:06:08;72.90;;;5.20;;
5221;SDS011;2630;52.036;8.514;2022-07-04T03:08:35;73.67;;;5.47;;
5221;SDS011;2630;52.036;8.514;2022-07-04T03:11:01;72.73;;;5.03;;
5221;SDS011;2630;52.036;8.514;2022-07-04T03:13:27;73.00;;;5.43;;
5221;SDS011;2630;52.036;8.514;2022-07-04T03:15:53;72.90;;;5.30;;
5221;SDS011;2630;52.036;8.514;2022-07-04T03:18:19;73.10;;;5.43;;
5221;SDS011;2630;52.036;8.514;2022-07-04T03:20:46;73.47;;;6.30;;
5221;SDS011;2630;52.036;8.514;2022-07-04T03:23:12;73.07;;;5.40;;
5221;SDS011;2630;52.036;8.514;2022-07-04T03:25:38;73.17;;;5.80;;
5221;SDS011;2630;52.036;8.514;2022-07-04T03:28:05;73.00;;;5.40;;
5221;SDS011;2630;52.036;8.514;2022-07-04T03:30:31;73.20;;;5.83;;
5221;SDS011;2630;52.036;8.514;2022-07-04T03:32:56;73.40;;;6.00;;
5221;SDS011;2630;52.036;8.514;2022-07-04T03:35:22;75.20;;;5.80;;
5221;SDS011;2630;52.036;8.514;2022-07-04T03:37:48;73.17;;;5.23;;
5221;SDS011;2630;52.036;8.514;2022-07-04T03:40:14;72.87;;;5.73;;
5221;SDS011;2630;52.036;8.514;2022-07-04T03:42:39;73.37;;;5.53;;
5221;SDS011;2630;52.036;8.514;2022-07-04T03:45:05;73.17;;;5.13;;
5221;SDS011;2630;52.036;8.514;2022-07-04T03:47:31;73.30;;;5.87;;
5221;SDS011;2630;52.036;8.514;2022-07-04T03:49:57;73.07;;;5.47;;
5221;SDS011;2630;52.036;8.514;2022-07-04T03:52:24;72.90;;;5.57;;
5221;SDS011;2630;52.036;8.514;2022-07-04T03:54:50;72.80;;;4.90;;
5221;SDS011;2630;52.036;8.514;2022-07-04T03:57:15;73.27;;;5.70;;
5221;SDS011;2630;52.036;8.514;2022-07-04T03:59:41;73.10;;;5.80;;
5221;SDS011;2630;52.036;8.514;2022-07-04T04:02:07;73.40;;;6.03;;
5221;SDS011;2630;52.036;8.514;2022-07-04T04:04:32;73.10;;;5.53;;
5221;SDS011;2630;52.036;8.514;2022-07-04T04:07:16;73.13;;;5.50;;
5221;SDS011;2630;52.036;8.514;2022-07-04T04:09:42;73.57;;;5.67;;
5221;SDS011;2630;52.036;8.514;2022-07-04T04:12:08;72.80;;;5.43;;
5221;SDS011;2630;52.036;8.514;2022-07-04T04:14:33;72.97;;;5.67;;
5221;SDS011;2630;52.036;8.514;2022-07-04T04:16:59;72.80;;;5.43;;
5221;SDS011;2630;52.036;8.514;2022-07-04T04:19:24;72.90;;;5.07;;
5221;SDS011;2630;52.036;8.514;2022-07-04T04:21:50;72.60;;;5.37;;
5221;SDS011;2630;52.036;8.514;2022-07-04T04:24:16;72.80;;;5.30;;
5221;SDS011;2630;52.036;8.514;2022-07-04T04:26:42;73.10;;;5.93;;
5221;SDS011;2630;52.036;8.514;2022-07-04T04:29:07;72.77;;;5.47;;
5221;SDS011;2630;52.036;8.514;2022-07-04T04:31:33;72.90;;;5.63;;
5221;SDS011;2630;52.036;8.514;2022-07-04T04:33:58;72.77;;;5.73;;
5221;SDS011;2630;52.036;8.514;2022-07-04T04:36:24;72.87;;;5.27;;
5221;SDS011;2630;52.036;8.514;2022-07-04T04:38:50;73.00;;;5.73;;
5221;SDS011;2630;52.036;8.514;2022-07-04T04:41:16;72.67;;;5.47;;
5221;SDS011;2630;52.036;8.514;2022-07-04T04:43:42;72.80;;;5.47;;
5221;SDS011;2630;52.036;8.514;2022-07-04T04:46:08;73.00;;;5.70;;
5221;SDS011;2630;52.036;8.514;2022-07-04T04:48:34;72.60;;;5.10;;
5221;SDS011;2630;52.036;8.514;2022-07-04T04:51:00;73.10;;;5.53;;
5221;SDS011;2630;52.036;8.514;2022-07-04T04:53:25;72.80;;;5.87;;
5221;SDS011;2630;52.036;8.514;2022-07-04T04:55:52;73.77;;;6.00;;
5221;SDS011;2630;52.036;8.514;2022-07-04T04:58:18;74.40;;;5.93;;
5221;SDS011;2630;52.036;8.514;2022-07-04T05:00:44;73.00;;;5.50;;
5221;SDS011;2630;52.036;8.514;2022-07-04T05:03:11;73.07;;;5.67;;
5221;SDS011;2630;52.036;8.514;2022-07-04T05:05:36;72.97;;;5.53;;
5221;SDS011;2630;52.036;8.514;2022-07-04T05:08:02;72.87;;;5.73;;
5221;SDS011;2630;52.036;8.514;2022-07-04T05:10:28;72.67;;;5.47;;
5221;SDS011;2630;52.036;8.514;2022-07-04T05:12:53;72.80;;;5.63;;
5221;SDS011;2630;52.036;8.514;2022-07-04T05:15:20;72.77;;;6.00;;
5221;SDS011;2630;52.036;8.514;2022-07-04T05:17:45;72.57;;;5.03;;
5221;SDS011;2630;52.036;8.514;2022-07-04T05:20:11;72.87;;;5.77;;
5221;SDS011;2630;52.036;8.514;2022-07-04T05:22:36;72.80;;;5.23;;
5221;SDS011;2630;52.036;8.514;2022-07-04T05:25:02;72.90;;;5.77;;
5221;SDS011;2630;52.036;8.514;2022-07-04T05:27:28;73.90;;;5.97;;
5221;SDS011;2630;52.036;8.514;2022-07-04T05:29:55;72.87;;;5.87;;
5221;SDS011;2630;52.036;8.514;2022-07-04T05:32:21;73.77;;;7.03;;
5221;SDS011;2630;52.036;8.514;2022-07-04T05:34:47;73.03;;;5.47;;
5221;SDS011;2630;52.036;8.514;2022-07-04T05:37:13;72.70;;;5.37;;
5221;SDS011;2630;52.036;8.514;2022-07-04T05:39:38;73.00;;;5.67;;
5221;SDS011;2630;52.036;8.514;2022-07-04T05:42:04;72.80;;;4.83;;
5221;SDS011;2630;52.036;8.514;2022-07-04T05:44:30;73.37;;;5.80;;
5221;SDS011;2630;52.036;8.514;2022-07-04T05:46:58;72.90;;;5.80;;
5221;SDS011;2630;52.036;8.514;2022-07-04T05:49:23;72.70;;;5.47;;
5221;SDS011;2630;52.036;8.514;2022-07-04T05:51:49;73.20;;;5.70;;
5221;SDS011;2630;52.036;8.514;2022-07-04T05:54:15;73.00;;;5.40;;
5221;SDS011;2630;52.036;8.514;2022-07-04T05:56:40;73.30;;;5.90;;
5221;SDS011;2630;52.036;8.514;2022-07-04T05:59:07;72.67;;;5.37;;
5221;SDS011;2630;52.036;8.514;2022-07-04T06:01:34;72.90;;;5.37;;
5221;SDS011;2630;52.036;8.514;2022-07-04T06:04:00;72.80;;;5.57;;
5221;SDS011;2630;52.036;8.514;2022-07-04T06:06:25;73.10;;;5.57;;
5221;SDS011;2630;52.036;8.514;2022-07-04T06:08:51;73.10;;;6.00;;
5221;SDS011;2630;52.036;8.514;2022-07-04T06:11:17;73.30;;;6.20;;
5221;SDS011;2630;52.036;8.514;2022-07-04T06:13:43;73.53;;;6.37;;
5221;SDS011;2630;52.036;8.514;2022-07-04T06:16:08;73.00;;;5.83;;
5221;SDS011;2630;52.036;8.514;2022-07-04T06:18:34;73.27;;;5.50;;
5221;SDS011;2630;52.036;8.514;2022-07-04T06:21:00;73.37;;;5.70;;
5221;SDS011;2630;52.036;8.514;2022-07-04T06:23:26;72.80;;;5.70;;
5221;SDS011;2630;52.036;8.514;2022-07-04T06:25:52;72.60;;;5.43;;
5221;SDS011;2630;52.036;8.514;2022-07-04T06:28:17;72.60;;;5.43;;
5221;SDS011;2630;52.036;8.514;2022-07-04T06:30:43;72.57;;;5.23;;
5221;SDS011;2630;52.036;8.514;2022-07-04T06:33:09;73.87;;;5.70;;
5221;SDS011;2630;52.036;8.514;2022-07-04T06:35:35;73.17;;;5.67;;
5221;SDS011;2630;52.036;8.514;2022-07-04T06:38:19;72.70;;;5.40;;
5221;SDS011;2630;52.036;8.514;2022-07-04T06:40:51;72.70;;;5.57;;
5221;SDS011;2630;52.036;8.514;2022-07-04T06:43:19;77.53;;;7.53;;
5221;SDS011;2630;52.036;8.514;2022-07-04T06:45:45;72.63;;;5.40;;
5221;SDS011;2630;52.036;8.514;2022-07-04T06:48:10;72.70;;;5.53;;
5221;SDS011;2630;52.036;8.514;2022-07-04T06:50:36;72.53;;;5.70;;
5221;SDS011;2630;52.036;8.514;2022-07-04T06:53:03;73.13;;;5.73;;
5221;SDS011;2630;52.036;8.514;2022-07-04T06:55:31;72.73;;;5.60;;
5221;SDS011;2630;52.036;8.514;2022-07-04T06:57:57;74.47;;;6.07;;
5221;SDS011;2630;52.036;8.514;2022-07-04T07:00:23;72.77;;;5.20;;
5221;SDS011;2630;52.036;8.514;2022-07-04T07:02:48;72.60;;;4.77;;
5221;SDS011;2630;52.036;8.514;2022-07-04T07:05:14;73.47;;;5.80;;
5221;SDS011;2630;52.036;8.514;2022-07-04T07:07:39;72.67;;;5.30;;
5221;SDS011;2630;52.036;8.514;2022-07-04T07:10:05;72.17;;;4.90;;
5221;SDS011;2630;52.036;8.514;2022-07-04T07:12:32;73.17;;;5.63;;
5221;SDS011;2630;52.036;8.514;2022-07-04T07:14:58;72.70;;;5.63;;
5221;SDS011;2630;52.036;8.514;2022-07-04T07:17:25;72.77;;;5.53;;
5221;SDS011;2630;52.036;8.514;2022-07-04T07:19:50;72.57;;;5.90;;
5221;SDS011;2630;52.036;8.514;2022-07-04T07:22:16;72.83;;;5.97;;
5221;SDS011;2630;52.036;8.514;2022-07-04T07:24:42;73.03;;;5.77;;
5221;SDS011;2630;52.036;8.514;2022-07-04T07:27:08;72.67;;;5.57;;
5221;SDS011;2630;52.036;8.514;2022-07-04T07:29:34;72.37;;;5.27;;
5221;SDS011;2630;52.036;8.514;2022-07-04T07:32:01;72.90;;;5.27;;
5221;SDS011;2630;52.036;8.514;2022-07-04T07:34:26;72.67;;;5.80;;
5221;SDS011;2630;52.036;8.514;2022-07-04T07:36:53;72.83;;;5.70;;
5221;SDS011;2630;52.036;8.514;2022-07-04T07:39:18;72.87;;;5.30;;
5221;SDS011;2630;52.036;8.514;2022-07-04T07:41:44;72.93;;;5.63;;
5221;SDS011;2630;52.036;8.514;2022-07-04T07:44:11;73.07;;;5.80;;
5221;SDS011;2630;52.036;8.514;2022-07-04T07:46:36;72.80;;;6.03;;
5221;SDS011;2630;52.036;8.514;2022-07-04T07:49:02;72.50;;;5.77;;
5221;SDS011;2630;52.036;8.514;2022-07-04T07:51:28;72.70;;;5.90;;
5221;SDS011;2630;52.036;8.514;2022-07-04T07:53:53;73.07;;;5.70;;
5221;SDS011;2630;52.036;8.514;2022-07-04T07:56:19;73.00;;;5.13;;
5221;SDS011;2630;52.036;8.514;2022-07-04T07:58:45;73.30;;;6.00;;
5221;SDS011;2630;52.036;8.514;2022-07-04T08:01:10;72.67;;;5.57;;
5221;SDS011;2630;52.036;8.514;2022-07-04T08:03:36;73.27;;;5.70;;
5221;SDS011;2630;52.036;8.514;2022-07-04T08:06:20;72.80;;;5.50;;
5221;SDS011;2630;52.036;8.514;2022-07-04T08:08:45;72.67;;;5.37;;
5221;SDS011;2630;52.036;8.514;2022-07-04T08:11:11;73.10;;;5.40;;
5221;SDS011;2630;52.036;8.514;2022-07-04T08:13:38;72.70;;;5.00;;
5221;SDS011;2630;52.036;8.514;2022-07-04T08:16:05;72.80;;;6.00;;
5221;SDS011;2630;52.036;8.514;2022-07-04T08:18:31;73.50;;;5.40;;
5221;SDS011;2630;52.036;8.514;2022-07-04T08:20:57;72.80;;;5.77;;
5221;SDS011;2630;52.036;8.514;2022-07-04T08:23:23;72.87;;;5.60;;
5221;SDS011;2630;52.036;8.514;2022-07-04T08:25:49;72.60;;;5.67;;
5221;SDS011;2630;52.036;8.514;2022-07-04T08:28:15;73.67;;;6.10;;
5221;SDS011;2630;52.036;8.514;2022-07-04T08:30:40;73.07;;;5.77;;
5221;SDS011;2630;52.036;8.514;2022-07-04T08:33:06;73.10;;;6.03;;
5221;SDS011;2630;52.036;8.514;2022-07-04T08:35:32;72.07;;;6.20;;
5221;SDS011;2630;52.036;8.514;2022-07-04T08:37:58;73.43;;;6.20;;
5221;SDS011;2630;52.036;8.514;2022-07-04T08:40:25;73.00;;;6.27;;
5221;SDS011;2630;52.036;8.514;2022-07-04T08:42:52;73.67;;;5.63;;
5221;SDS011;2630;52.036;8.514;2022-07-04T08:45:23;73.37;;;6.17;;
5221;SDS011;2630;52.036;8.514;2022-07-04T08:48:01;73.20;;;5.77;;
5221;SDS011;2630;52.036;8.514;2022-07-04T08:50:30;74.27;;;6.63;;
5221;SDS011;2630;52.036;8.514;2022-07-04T08:52:58;73.40;;;6.23;;
5221;SDS011;2630;52.036;8.514;2022-07-04T08:55:31;73.47;;;5.93;;
5221;SDS011;2630;52.036;8.514;2022-07-04T08:58:16;74.90;;;6.73;;
5221;SDS011;2630;52.036;8.514;2022-07-04T09:00:54;74.27;;;7.00;;
5221;SDS011;2630;52.036;8.514;2022-07-04T09:03:36;73.47;;;6.90;;
5221;SDS011;2630;52.036;8.514;2022-07-04T09:06:02;74.17;;;7.07;;
5221;SDS011;2630;52.036;8.514;2022-07-04T09:08:28;75.43;;;9.13;;
5221;SDS011;2630;52.036;8.514;2022-07-04T09:10:54;73.80;;;7.50;;
5221;SDS011;2630;52.036;8.514;2022-07-04T09:13:20;74.57;;;6.90;;
5221;SDS011;2630;52.036;8.514;2022-07-04T09:15:46;73.67;;;7.33;;
5221;SDS011;2630;52.036;8.514;2022-07-04T09:18:23;74.37;;;7.27;;
5221;SDS011;2630;52.036;8.514;2022-07-04T09:20:50;73.77;;;6.40;;
5221;SDS011;2630;52.036;8.514;2022-07-04T09:23:17;73.30;;;6.57;;
5221;SDS011;2630;52.036;8.514;2022-07-04T09:25:44;73.90;;;7.67;;
5221;SDS011;2630;52.036;8.514;2022-07-04T09:28:11;73.53;;;6.33;;
5221;SDS011;2630;52.036;8.514;2022-07-04T09:30:45;74.10;;;7.93;;
5221;SDS011;2630;52.036;8.514;2022-07-04T09:33:15;74.90;;;8.10;;
5221;SDS011;2630;52.036;8.514;2022-07-04T09:35:42;72.83;;;7.00;;
5221;SDS011;2630;52.036;8.514;2022-07-04T09:38:09;73.77;;;6.97;;
5221;SDS011;2630;52.036;8.514;2022-07-04T09:40:38;73.47;;;6.90;;
5221;SDS011;2630;52.036;8.514;2022-07-04T09:43:23;74.90;;;8.50;;
5221;SDS011;2630;52.036;8.514;2022-07-04T09:45:52;73.80;;;7.93;;
5221;SDS011;2630;52.036;8.514;2022-07-04T09:48:23;73.33;;;7.20;;
5221;SDS011;2630;52.036;8.514;2022-07-04T09:50:50;73.80;;;7.30;;
5221;SDS011;2630;52.036;8.514;2022-07-04T09:53:15;74.07;;;7.17;;
5221;SDS011;2630;52.036;8.514;2022-07-04T09:55:41;76.37;;;8.93;;
5221;SDS011;2630;52.036;8.514;2022-07-04T09:58:11;73.70;;;7.70;;
5221;SDS011;2630;52.036;8.514;2022-07-04T10:00:41;73.97;;;7.90;;
5221;SDS011;2630;52.036;8.514;2022-07-04T10:08:28;74.50;;;7.00;;
5221;SDS011;2630;52.036;8.514;2022-07-04T10:10:57;73.77;;;6.13;;
5221;SDS011;2630;52.036;8.514;2022-07-04T10:13:24;74.20;;;6.97;;
5221;SDS011;2630;52.036;8.514;2022-07-04T10:15:50;73.30;;;6.70;;
5221;SDS011;2630;52.036;8.514;2022-07-04T10:18:17;74.90;;;8.00;;
5221;SDS011;2630;52.036;8.514;2022-07-04T10:20:44;74.23;;;7.83;;
5221;SDS011;2630;52.036;8.514;2022-07-04T10:23:10;73.07;;;8.23;;
5221;SDS011;2630;52.036;8.514;2022-07-04T10:25:36;74.97;;;8.27;;
5221;SDS011;2630;52.036;8.514;2022-07-04T10:28:03;72.57;;;6.90;;
5221;SDS011;2630;52.036;8.514;2022-07-04T10:30:32;72.67;;;6.67;;
5221;SDS011;2630;52.036;8.514;2022-07-04T10:33:04;74.17;;;7.90;;
5221;SDS011;2630;52.036;8.514;2022-07-04T10:38:13;74.63;;;7.80;;
5221;SDS011;2630;52.036;8.514;2022-07-04T10:40:49;73.77;;;7.87;;
5221;SDS011;2630;52.036;8.514;2022-07-04T10:48:57;75.30;;;7.57;;
5221;SDS011;2630;52.036;8.514;2022-07-04T10:54:29;74.83;;;7.07;;
5221;SDS011;2630;52.036;8.514;2022-07-04T10:56:57;74.27;;;6.90;;
5221;SDS011;2630;52.036;8.514;2022-07-04T10:59:36;74.70;;;6.90;;
5221;SDS011;2630;52.036;8.514;2022-07-04T11:07:18;73.57;;;6.50;;
5221;SDS011;2630;52.036;8.514;2022-07-04T11:09:44;73.50;;;7.13;;
5221;SDS011;2630;52.036;8.514;2022-07-04T11:12:11;73.27;;;6.70;;
5221;SDS011;2630;52.036;8.514;2022-07-04T11:17:12;73.03;;;5.70;;
5221;SDS011;2630;52.036;8.514;2022-07-04T11:19:40;73.67;;;6.43;;
5221;SDS011;2630;52.036;8.514;2022-07-04T11:22:07;73.17;;;6.60;;
5221;SDS011;2630;52.036;8.514;2022-07-04T11:24:35;73.50;;;6.30;;
5221;SDS011;2630;52.036;8.514;2022-07-04T11:27:03;73.80;;;6.60;;
5221;SDS011;2630;52.036;8.514;2022-07-04T11:29:31;73.40;;;6.53;;
5221;SDS011;2630;52.036;8.514;2022-07-04T11:31:57;73.17;;;6.90;;
5221;SDS011;2630;52.036;8.514;2022-07-04T11:34:23;73.90;;;7.10;;
5221;SDS011;2630;52.036;8.514;2022-07-04T11:36:50;73.97;;;6.80;;
5221;SDS011;2630;52.036;8.514;2022-07-04T11:39:20;73.53;;;6.73;;
5221;SDS011;2630;52.036;8.514;2022-07-04T11:41:55;73.47;;;6.77;;
5221;SDS011;2630;52.036;8.514;2022-07-04T11:44:40;73.47;;;6.63;;
5221;SDS011;2630;52.036;8.514;2022-07-04T11:47:34;76.60;;;10.93;;
5221;SDS011;2630;52.036;8.514;2022-07-04T11:50:05;73.80;;;6.80;;
5221;SDS011;2630;52.036;8.514;2022-07-04T11:55:02;73.20;;;6.57;;
5221;SDS011;2630;52.036;8.514;2022-07-04T11:57:29;77.83;;;7.43;;
5221;SDS011;2630;52.036;8.514;2022-07-04T12:00:12;74.20;;;6.83;;
5221;SDS011;2630;52.036;8.514;2022-07-04T12:02:39;73.27;;;6.53;;
5221;SDS011;2630;52.036;8.514;2022-07-04T12:05:06;73.00;;;6.07;;
5221;SDS011;2630;52.036;8.514;2022-07-04T12:07:34;73.10;;;6.30;;
5221;SDS011;2630;52.036;8.514;2022-07-04T12:10:17;73.60;;;6.63;;
5221;SDS011;2630;52.036;8.514;2022-07-04T12:15:23;73.50;;;6.57;;
5221;SDS011;2630;52.036;8.514;2022-07-04T12:17:51;73.07;;;6.00;;
5221;SDS011;2630;52.036;8.514;2022-07-04T12:20:19;73.07;;;6.77;;
5221;SDS011;2630;52.036;8.514;2022-07-04T12:23:04;74.20;;;7.10;;
5221;SDS011;2630;52.036;8.514;2022-07-04T12:25:30;72.67;;;6.57;;
5221;SDS011;2630;52.036;8.514;2022-07-04T12:28:05;74.77;;;7.10;;
5221;SDS011;2630;52.036;8.514;2022-07-04T12:30:49;72.70;;;6.27;;
5221;SDS011;2630;52.036;8.514;2022-07-04T12:33:21;73.97;;;7.63;;
5221;SDS011;2630;52.036;8.514;2022-07-04T12:40:50;72.97;;;6.53;;
5221;SDS011;2630;52.036;8.514;2022-07-04T12:46:28;72.70;;;6.20;;
5221;SDS011;2630;52.036;8.514;2022-07-04T12:48:57;74.27;;;7.23;;
5221;SDS011;2630;52.036;8.514;2022-07-04T12:51:25;72.90;;;6.13;;
5221;SDS011;2630;52.036;8.514;2022-07-04T12:53:53;73.27;;;6.60;;
5221;SDS011;2630;52.036;8.514;2022-07-04T12:56:33;74.77;;;6.73;;
5221;SDS011;2630;52.036;8.514;2022-07-04T12:59:08;72.97;;;5.90;;
5221;SDS011;2630;52.036;8.514;2022-07-04T13:01:35;73.03;;;6.33;;
5221;SDS011;2630;52.036;8.514;2022-07-04T13:04:02;73.10;;;6.60;;
5221;SDS011;2630;52.036;8.514;2022-07-04T13:06:28;74.20;;;6.67;;
5221;SDS011;2630;52.036;8.514;2022-07-04T13:08:54;73.23;;;6.47;;
5221;SDS011;2630;52.036;8.514;2022-07-04T13:11:20;73.50;;;6.63;;
5221;SDS011;2630;52.036;8.514;2022-07-04T13:14:05;73.40;;;7.00;;
5221;SDS011;2630;52.036;8.514;2022-07-04T13:16:30;73.47;;;6.90;;
5221;SDS011;2630;52.036;8.514;2022-07-04T13:18:56;72.97;;;5.97;;
5221;SDS011;2630;52.036;8.514;2022-07-04T13:21:22;76.97;;;7.20;;
5221;SDS011;2630;52.036;8.514;2022-07-04T13:23:48;74.47;;;6.80;;
5221;SDS011;2630;52.036;8.514;2022-07-04T13:26:14;73.27;;;6.57;;
5221;SDS011;2630;52.036;8.514;2022-07-04T13:28:39;72.90;;;6.37;;
5221;SDS011;2630;52.036;8.514;2022-07-04T13:31:05;73.40;;;6.90;;
5221;SDS011;2630;52.036;8.514;2022-07-04T13:33:32;72.30;;;6.90;;
5221;SDS011;2630;52.036;8.514;2022-07-04T13:35:57;72.97;;;6.50;;
5221;SDS011;2630;52.036;8.514;2022-07-04T13:38:23;73.47;;;6.43;;
5221;SDS011;2630;52.036;8.514;2022-07-04T13:40:50;72.80;;;6.27;;
5221;SDS011;2630;52.036;8.514;2022-07-04T13:43:17;73.07;;;6.47;;
5221;SDS011;2630;52.036;8.514;2022-07-04T13:45:43;73.07;;;6.43;;
5221;SDS011;2630;52.036;8.514;2022-07-04T13:48:11;73.00;;;5.93;;
5221;SDS011;2630;52.036;8.514;2022-07-04T13:50:37;73.20;;;6.10;;
5221;SDS011;2630;52.036;8.514;2022-07-04T13:53:06;73.10;;;6.43;;
5221;SDS011;2630;52.036;8.514;2022-07-04T13:55:33;73.10;;;6.90;;
5221;SDS011;2630;52.036;8.514;2022-07-04T13:58:01;73.37;;;6.67;;
5221;SDS011;2630;52.036;8.514;2022-07-04T14:00:27;73.00;;;6.63;;
5221;SDS011;2630;52.036;8.514;2022-07-04T14:02:53;73.17;;;6.23;;
5221;SDS011;2630;52.036;8.514;2022-07-04T14:05:19;73.10;;;6.50;;
5221;SDS011;2630;52.036;8.514;2022-07-04T14:07:44;73.27;;;6.80;;
5221;SDS011;2630;52.036;8.514;2022-07-04T14:10:10;73.07;;;6.53;;
5221;SDS011;2630;52.036;8.514;2022-07-04T14:12:36;72.90;;;6.23;;
5221;SDS011;2630;52.036;8.514;2022-07-04T14:15:02;73.17;;;6.57;;
5221;SDS011;2630;52.036;8.514;2022-07-04T14:17:28;72.87;;;6.33;;
5221;SDS011;2630;52.036;8.514;2022-07-04T14:19:54;73.27;;;6.67;;
5221;SDS011;2630;52.036;8.514;2022-07-04T14:22:20;72.80;;;6.80;;
5221;SDS011;2630;52.036;8.514;2022-07-04T14:24:46;72.97;;;6.43;;
5221;SDS011;2630;52.036;8.514;2022-07-04T14:27:12;72.17;;;6.33;;
5221;SDS011;2630;52.036;8.514;2022-07-04T14:29:37;72.37;;;6.27;;
5221;SDS011;2630;52.036;8.514;2022-07-04T14:32:03;76.23;;;6.80;;
5221;SDS011;2630;52.036;8.514;2022-07-04T14:34:29;76.40;;;7.50;;
5221;SDS011;2630;52.036;8.514;2022-07-04T14:36:55;73.37;;;5.50;;
5221;SDS011;2630;52.036;8.514;2022-07-04T14:39:21;73.60;;;6.50;;
5221;SDS011;2630;52.036;8.514;2022-07-04T14:41:47;73.00;;;6.30;;
5221;SDS011;2630;52.036;8.514;2022-07-04T14:44:13;73.17;;;6.20;;
5221;SDS011;2630;52.036;8.514;2022-07-04T14:46:39;73.50;;;6.20;;
5221;SDS011;2630;52.036;8.514;2022-07-04T14:49:04;73.57;;;6.00;;
5221;SDS011;2630;52.036;8.514;2022-07-04T14:51:30;73.17;;;5.70;;
5221;SDS011;2630;52.036;8.514;2022-07-04T14:53:56;72.90;;;6.60;;
5221;SDS011;2630;52.036;8.514;2022-07-04T14:56:22;72.97;;;6.33;;
5221;SDS011;2630;52.036;8.514;2022-07-04T14:58:47;72.80;;;6.33;;
5221;SDS011;2630;52.036;8.514;2022-07-04T15:01:13;73.60;;;6.80;;
5221;SDS011;2630;52.036;8.514;2022-07-04T15:03:39;76.67;;;7.63;;
5221;SDS011;2630;52.036;8.514;2022-07-04T15:06:05;72.00;;;6.03;;
5221;SDS011;2630;52.036;8.514;2022-07-04T15:08:30;74.07;;;6.83;;
5221;SDS011;2630;52.036;8.514;2022-07-04T15:10:56;73.17;;;6.20;;
5221;SDS011;2630;52.036;8.514;2022-07-04T15:13:21;72.83;;;6.33;;
5221;SDS011;2630;52.036;8.514;2022-07-04T15:15:47;72.87;;;6.03;;
5221;SDS011;2630;52.036;8.514;2022-07-04T15:18:13;72.77;;;6.17;;
5221;SDS011;2630;52.036;8.514;2022-07-04T15:20:38;73.20;;;6.43;;
5221;SDS011;2630;52.036;8.514;2022-07-04T15:23:23;74.07;;;6.80;;
5221;SDS011;2630;52.036;8.514;2022-07-04T15:26:07;72.97;;;6.33;;
5221;SDS011;2630;52.036;8.514;2022-07-04T15:28:34;73.70;;;6.83;;
5221;SDS011;2630;52.036;8.514;2022-07-04T15:30:59;74.07;;;6.70;;
5221;SDS011;2630;52.036;8.514;2022-07-04T15:33:28;72.30;;;6.20;;
5221;SDS011;2630;52.036;8.514;2022-07-04T15:35:55;72.97;;;6.33;;
5221;SDS011;2630;52.036;8.514;2022-07-04T15:38:21;74.60;;;6.90;;